sensor_id;sensor_type;location;lat;lon;timestamp;pressure;altitude;pressure_sealevel;temperature;humidity
967;BME280;56108;48.730;9.304;2023-04-27T00:00:53;97613.19;;;7.06;92.56
967;BME280;56108;48.730;9.304;2023-04-27T00:03:01;97613.19;;;7.06;91.95
967;BME280;56108;48.730;9.304;2023-04-27T00:05:10;97608.91;;;7.03;92.87
967;BME280;56108;48.730;9.304;2023-04-27T00:07:20;97605.75;;;6.97;93.91
967;BME280;56108;48.730;9.304;2023-04-27T00:09:31;97603.09;;;6.97;95.24
967;BME280;56108;48.730;9.304;2023-04-27T00:11:39;97610.97;;;6.98;97.89
967;BME280;56108;48.730;9.304;2023-04-27T00:13:47;97607.78;;;6.92;97.82
967;BME280;56108;48.730;9.304;2023-04-27T00:15:55;97605.31;;;6.89;97.98
967;BME280;56108;48.730;9.304;2023-04-27T00:18:04;97603.53;;;6.89;98.06
967;BME280;56108;48.730;9.304;2023-04-27T00:20:12;97601.91;;;6.87;98.68
967;BME280;56108;48.730;9.304;2023-04-27T00:22:20;97596.72;;;7.01;100.00
967;BME280;56108;48.730;9.304;2023-04-27T00:24:31;97600.97;;;7.19;96.15
967;BME280;56108;48.730;9.304;2023-04-27T00:26:39;97601.41;;;7.27;95.68
967;BME280;56108;48.730;9.304;2023-04-27T00:28:48;97600.03;;;7.20;96.31
967;BME280;56108;48.730;9.304;2023-04-27T00:30:56;97598.94;;;7.24;96.45
967;BME280;56108;48.730;9.304;2023-04-27T00:33:07;97592.38;;;7.16;96.95
967;BME280;56108;48.730;9.304;2023-04-27T00:35:17;97589.28;;;7.07;97.04
967;BME280;56108;48.730;9.304;2023-04-27T00:37:25;97590.75;;;7.13;95.51
967;BME280;56108;48.730;9.304;2023-04-27T00:39:36;97586.75;;;7.06;95.73
967;BME280;56108;48.730;9.304;2023-04-27T00:41:44;97595.94;;;6.99;96.53
967;BME280;56108;48.730;9.304;2023-04-27T00:43:52;97586.53;;;6.93;96.65
967;BME280;56108;48.730;9.304;2023-04-27T00:46:00;97581.50;;;6.89;97.23
967;BME280;56108;48.730;9.304;2023-04-27T00:48:09;97586.13;;;6.85;97.06
967;BME280;56108;48.730;9.304;2023-04-27T00:50:24;97579.19;;;6.83;98.50
967;BME280;56108;48.730;9.304;2023-04-27T00:52:35;97586.47;;;6.95;100.00
967;BME280;56108;48.730;9.304;2023-04-27T00:54:46;97579.97;;;6.85;99.32
967;BME280;56108;48.730;9.304;2023-04-27T00:56:58;97577.50;;;6.97;98.12
967;BME280;56108;48.730;9.304;2023-04-27T00:59:07;97581.19;;;6.95;96.47
967;BME280;56108;48.730;9.304;2023-04-27T01:01:16;97580.06;;;6.99;95.69
967;BME280;56108;48.730;9.304;2023-04-27T01:03:25;97579.31;;;6.97;96.92
967;BME280;56108;48.730;9.304;2023-04-27T01:05:35;97577.84;;;6.91;96.70
967;BME280;56108;48.730;9.304;2023-04-27T01:07:45;97577.50;;;6.82;95.69
967;BME280;56108;48.730;9.304;2023-04-27T01:09:55;97575.78;;;6.80;96.19
967;BME280;56108;48.730;9.304;2023-04-27T01:12:04;97578.94;;;6.87;96.18
967;BME280;56108;48.730;9.304;2023-04-27T01:14:13;97583.84;;;6.95;97.99
967;BME280;56108;48.730;9.304;2023-04-27T01:16:21;97584.16;;;6.89;97.61
967;BME280;56108;48.730;9.304;2023-04-27T01:18:29;97584.94;;;6.91;94.83
967;BME280;56108;48.730;9.304;2023-04-27T01:20:37;97581.00;;;6.98;95.42
967;BME280;56108;48.730;9.304;2023-04-27T01:22:46;97583.75;;;6.96;95.57
967;BME280;56108;48.730;9.304;2023-04-27T01:24:57;97585.34;;;6.99;95.34
967;BME280;56108;48.730;9.304;2023-04-27T01:27:08;97585.63;;;7.10;96.92
967;BME280;56108;48.730;9.304;2023-04-27T01:29:16;97586.75;;;7.06;96.64
967;BME280;56108;48.730;9.304;2023-04-27T01:31:25;97586.38;;;6.96;97.09
967;BME280;56108;48.730;9.304;2023-04-27T01:33:33;97582.78;;;6.97;97.83
967;BME280;56108;48.730;9.304;2023-04-27T01:35:41;97591.22;;;6.88;97.18
967;BME280;56108;48.730;9.304;2023-04-27T01:40:00;97586.34;;;6.65;98.85
967;BME280;56108;48.730;9.304;2023-04-27T01:42:09;97572.34;;;6.63;97.51
967;BME280;56108;48.730;9.304;2023-04-27T01:44:17;97573.03;;;6.66;99.10
967;BME280;56108;48.730;9.304;2023-04-27T01:46:26;97575.53;;;6.69;95.30
967;BME280;56108;48.730;9.304;2023-04-27T01:48:35;97577.97;;;6.57;96.36
967;BME280;56108;48.730;9.304;2023-04-27T01:50:43;97574.97;;;6.63;94.46
967;BME280;56108;48.730;9.304;2023-04-27T01:52:51;97582.41;;;6.56;93.92
967;BME280;56108;48.730;9.304;2023-04-27T01:55:01;97583.47;;;6.69;93.24
967;BME280;56108;48.730;9.304;2023-04-27T01:57:10;97583.72;;;6.65;93.68
967;BME280;56108;48.730;9.304;2023-04-27T01:59:18;97586.75;;;6.57;94.70
967;BME280;56108;48.730;9.304;2023-04-27T02:01:26;97589.56;;;6.54;96.12
967;BME280;56108;48.730;9.304;2023-04-27T02:03:35;97583.59;;;6.50;98.00
967;BME280;56108;48.730;9.304;2023-04-27T02:05:43;97588.72;;;6.53;97.67
967;BME280;56108;48.730;9.304;2023-04-27T02:07:52;97590.75;;;6.48;97.79
967;BME280;56108;48.730;9.304;2023-04-27T02:10:03;97580.75;;;6.38;98.66
967;BME280;56108;48.730;9.304;2023-04-27T02:12:11;97590.25;;;6.24;100.00
967;BME280;56108;48.730;9.304;2023-04-27T02:14:19;97587.03;;;6.35;100.00
967;BME280;56108;48.730;9.304;2023-04-27T02:16:27;97586.94;;;6.37;100.00
967;BME280;56108;48.730;9.304;2023-04-27T02:18:35;97591.38;;;6.36;100.00
967;BME280;56108;48.730;9.304;2023-04-27T02:20:46;97592.84;;;6.42;100.00
967;BME280;56108;48.730;9.304;2023-04-27T02:22:54;97598.41;;;6.37;100.00
967;BME280;56108;48.730;9.304;2023-04-27T02:25:07;97595.44;;;6.26;100.00
967;BME280;56108;48.730;9.304;2023-04-27T02:27:15;97603.53;;;6.23;100.00
967;BME280;56108;48.730;9.304;2023-04-27T02:29:28;97599.03;;;6.25;100.00
967;BME280;56108;48.730;9.304;2023-04-27T02:31:37;97592.19;;;6.21;100.00
967;BME280;56108;48.730;9.304;2023-04-27T02:33:45;97611.94;;;6.14;100.00
967;BME280;56108;48.730;9.304;2023-04-27T02:35:53;97602.22;;;6.14;100.00
967;BME280;56108;48.730;9.304;2023-04-27T02:38:02;97603.06;;;6.15;100.00
967;BME280;56108;48.730;9.304;2023-04-27T02:40:17;97610.31;;;6.11;100.00
967;BME280;56108;48.730;9.304;2023-04-27T02:42:25;97614.59;;;6.14;100.00
967;BME280;56108;48.730;9.304;2023-04-27T02:44:33;97613.50;;;6.18;100.00
967;BME280;56108;48.730;9.304;2023-04-27T02:46:41;97611.72;;;6.18;100.00
967;BME280;56108;48.730;9.304;2023-04-27T02:48:51;97616.22;;;6.16;100.00
967;BME280;56108;48.730;9.304;2023-04-27T02:51:02;97617.28;;;6.30;100.00
967;BME280;56108;48.730;9.304;2023-04-27T02:53:11;97613.94;;;6.26;100.00
967;BME280;56108;48.730;9.304;2023-04-27T02:57:29;97616.19;;;6.34;100.00
967;BME280;56108;48.730;9.304;2023-04-27T02:59:37;97620.41;;;6.38;100.00
967;BME280;56108;48.730;9.304;2023-04-27T03:01:50;97618.00;;;6.33;100.00
967;BME280;56108;48.730;9.304;2023-04-27T03:03:58;97616.19;;;6.34;100.00
967;BME280;56108;48.730;9.304;2023-04-27T03:06:06;97621.25;;;6.38;100.00
967;BME280;56108;48.730;9.304;2023-04-27T03:08:14;97617.91;;;6.35;100.00
967;BME280;56108;48.730;9.304;2023-04-27T03:10:25;97620.41;;;6.38;100.00
967;BME280;56108;48.730;9.304;2023-04-27T03:12:33;97613.13;;;6.41;100.00
967;BME280;56108;48.730;9.304;2023-04-27T03:14:42;97621.44;;;6.51;100.00
967;BME280;56108;48.730;9.304;2023-04-27T03:16:50;97622.63;;;6.45;100.00
967;BME280;56108;48.730;9.304;2023-04-27T03:19:00;97616.50;;;6.45;100.00
967;BME280;56108;48.730;9.304;2023-04-27T03:21:09;97611.19;;;6.45;100.00
967;BME280;56108;48.730;9.304;2023-04-27T03:23:18;97618.44;;;6.41;100.00
967;BME280;56108;48.730;9.304;2023-04-27T03:25:31;97617.44;;;6.44;100.00
967;BME280;56108;48.730;9.304;2023-04-27T03:27:39;97609.81;;;6.38;100.00
967;BME280;56108;48.730;9.304;2023-04-27T03:29:50;97613.56;;;6.34;100.00
967;BME280;56108;48.730;9.304;2023-04-27T03:31:58;97620.69;;;6.32;100.00
967;BME280;56108;48.730;9.304;2023-04-27T03:34:06;97623.19;;;6.35;100.00
967;BME280;56108;48.730;9.304;2023-04-27T03:36:16;97617.81;;;6.36;100.00
967;BME280;56108;48.730;9.304;2023-04-27T03:38:24;97614.31;;;6.36;100.00
967;BME280;56108;48.730;9.304;2023-04-27T03:40:35;97615.88;;;6.40;100.00
967;BME280;56108;48.730;9.304;2023-04-27T03:42:43;97614.72;;;6.28;100.00
967;BME280;56108;48.730;9.304;2023-04-27T03:44:52;97606.81;;;6.28;100.00
967;BME280;56108;48.730;9.304;2023-04-27T03:47:00;97605.41;;;6.21;100.00
967;BME280;56108;48.730;9.304;2023-04-27T03:49:15;97611.09;;;6.13;100.00
967;BME280;56108;48.730;9.304;2023-04-27T03:51:23;97613.97;;;6.09;100.00
967;BME280;56108;48.730;9.304;2023-04-27T03:53:31;97617.00;;;6.18;100.00
967;BME280;56108;48.730;9.304;2023-04-27T03:55:43;97620.47;;;6.19;100.00
967;BME280;56108;48.730;9.304;2023-04-27T03:57:52;97620.03;;;6.28;100.00
967;BME280;56108;48.730;9.304;2023-04-27T04:00:00;97631.75;;;6.22;100.00
967;BME280;56108;48.730;9.304;2023-04-27T04:02:16;97625.16;;;6.14;100.00
967;BME280;56108;48.730;9.304;2023-04-27T04:04:26;97629.06;;;6.07;100.00
967;BME280;56108;48.730;9.304;2023-04-27T04:06:34;97626.72;;;6.18;100.00
967;BME280;56108;48.730;9.304;2023-04-27T04:08:42;97626.00;;;6.14;100.00
967;BME280;56108;48.730;9.304;2023-04-27T04:10:53;97626.72;;;6.18;100.00
967;BME280;56108;48.730;9.304;2023-04-27T04:13:01;97625.84;;;6.17;100.00
967;BME280;56108;48.730;9.304;2023-04-27T04:15:09;97629.50;;;6.15;100.00
967;BME280;56108;48.730;9.304;2023-04-27T04:17:18;97627.03;;;6.12;100.00
967;BME280;56108;48.730;9.304;2023-04-27T04:19:26;97633.00;;;6.15;100.00
967;BME280;56108;48.730;9.304;2023-04-27T04:21:34;97625.38;;;6.26;100.00
967;BME280;56108;48.730;9.304;2023-04-27T04:23:43;97620.78;;;6.30;100.00
967;BME280;56108;48.730;9.304;2023-04-27T04:25:55;97625.25;;;6.12;100.00
967;BME280;56108;48.730;9.304;2023-04-27T04:28:08;97624.53;;;6.09;100.00
967;BME280;56108;48.730;9.304;2023-04-27T04:30:16;97627.09;;;6.10;100.00
967;BME280;56108;48.730;9.304;2023-04-27T04:32:24;97636.09;;;6.23;100.00
967;BME280;56108;48.730;9.304;2023-04-27T04:34:35;97636.72;;;6.28;100.00
967;BME280;56108;48.730;9.304;2023-04-27T04:38:51;97635.31;;;6.39;100.00
967;BME280;56108;48.730;9.304;2023-04-27T04:41:04;97640.75;;;6.36;100.00
967;BME280;56108;48.730;9.304;2023-04-27T04:43:14;97634.13;;;6.44;100.00
967;BME280;56108;48.730;9.304;2023-04-27T04:45:24;97637.09;;;6.38;100.00
967;BME280;56108;48.730;9.304;2023-04-27T04:47:34;97639.91;;;6.35;100.00
967;BME280;56108;48.730;9.304;2023-04-27T04:49:43;97640.84;;;6.34;100.00
967;BME280;56108;48.730;9.304;2023-04-27T04:51:51;97644.56;;;6.30;100.00
967;BME280;56108;48.730;9.304;2023-04-27T04:53:59;97642.72;;;6.32;100.00
967;BME280;56108;48.730;9.304;2023-04-27T04:56:12;97645.88;;;6.39;100.00
967;BME280;56108;48.730;9.304;2023-04-27T04:58:20;97638.72;;;6.41;100.00
967;BME280;56108;48.730;9.304;2023-04-27T05:00:28;97635.75;;;6.47;100.00
967;BME280;56108;48.730;9.304;2023-04-27T05:02:39;97643.38;;;6.53;100.00
967;BME280;56108;48.730;9.304;2023-04-27T05:04:47;97639.94;;;6.51;100.00
967;BME280;56108;48.730;9.304;2023-04-27T05:06:56;97648.63;;;6.37;100.00
967;BME280;56108;48.730;9.304;2023-04-27T05:09:04;97644.38;;;6.50;100.00
967;BME280;56108;48.730;9.304;2023-04-27T05:11:15;97648.41;;;6.58;100.00
967;BME280;56108;48.730;9.304;2023-04-27T05:13:23;97650.81;;;6.62;100.00
967;BME280;56108;48.730;9.304;2023-04-27T05:15:33;97647.50;;;6.59;100.00
967;BME280;56108;48.730;9.304;2023-04-27T05:17:46;97652.94;;;6.89;100.00
967;BME280;56108;48.730;9.304;2023-04-27T05:19:54;97652.00;;;6.90;100.00
967;BME280;56108;48.730;9.304;2023-04-27T05:22:03;97652.78;;;6.92;100.00
967;BME280;56108;48.730;9.304;2023-04-27T05:24:10;97653.38;;;6.97;100.00
967;BME280;56108;48.730;9.304;2023-04-27T05:26:22;97650.91;;;7.10;100.00
967;BME280;56108;48.730;9.304;2023-04-27T05:28:30;97658.19;;;7.22;100.00
967;BME280;56108;48.730;9.304;2023-04-27T05:30:38;97652.91;;;7.38;100.00
967;BME280;56108;48.730;9.304;2023-04-27T05:32:46;97658.78;;;7.27;100.00
967;BME280;56108;48.730;9.304;2023-04-27T05:34:55;97662.03;;;7.16;100.00
967;BME280;56108;48.730;9.304;2023-04-27T05:37:02;97668.00;;;7.51;100.00
967;BME280;56108;48.730;9.304;2023-04-27T05:39:11;97666.75;;;7.43;100.00
967;BME280;56108;48.730;9.304;2023-04-27T05:41:22;97663.50;;;7.38;100.00
967;BME280;56108;48.730;9.304;2023-04-27T05:43:32;97665.19;;;7.54;100.00
967;BME280;56108;48.730;9.304;2023-04-27T05:45:42;97674.00;;;7.55;100.00
967;BME280;56108;48.730;9.304;2023-04-27T05:47:50;97670.66;;;7.83;100.00
967;BME280;56108;48.730;9.304;2023-04-27T05:49:59;97675.34;;;7.94;100.00
967;BME280;56108;48.730;9.304;2023-04-27T05:52:07;97668.53;;;7.74;100.00
967;BME280;56108;48.730;9.304;2023-04-27T05:54:15;97672.63;;;7.79;100.00
967;BME280;56108;48.730;9.304;2023-04-27T05:56:26;97676.69;;;8.01;100.00
967;BME280;56108;48.730;9.304;2023-04-27T05:58:34;97680.44;;;7.97;100.00
967;BME280;56108;48.730;9.304;2023-04-27T06:00:42;97678.97;;;8.07;100.00
967;BME280;56108;48.730;9.304;2023-04-27T06:02:51;97685.81;;;8.11;100.00
967;BME280;56108;48.730;9.304;2023-04-27T06:04:59;97691.66;;;8.32;100.00
967;BME280;56108;48.730;9.304;2023-04-27T06:07:08;97691.78;;;8.45;99.68
967;BME280;56108;48.730;9.304;2023-04-27T06:09:17;97697.44;;;8.69;98.69
967;BME280;56108;48.730;9.304;2023-04-27T06:11:28;97692.88;;;8.71;97.53
967;BME280;56108;48.730;9.304;2023-04-27T06:13:36;97691.81;;;9.03;92.96
967;BME280;56108;48.730;9.304;2023-04-27T06:15:44;97692.09;;;8.99;91.21
967;BME280;56108;48.730;9.304;2023-04-27T06:17:52;97690.81;;;9.33;89.68
967;BME280;56108;48.730;9.304;2023-04-27T06:20:00;97697.34;;;9.56;88.38
967;BME280;56108;48.730;9.304;2023-04-27T06:22:10;97694.22;;;9.49;86.33
967;BME280;56108;48.730;9.304;2023-04-27T06:24:18;97703.78;;;9.66;86.59
967;BME280;56108;48.730;9.304;2023-04-27T06:26:30;97692.78;;;9.44;89.16
967;BME280;56108;48.730;9.304;2023-04-27T06:28:38;97696.81;;;9.08;88.76
967;BME280;56108;48.730;9.304;2023-04-27T06:30:46;97697.16;;;9.45;89.15
967;BME280;56108;48.730;9.304;2023-04-27T06:32:54;97705.88;;;9.61;86.04
967;BME280;56108;48.730;9.304;2023-04-27T06:35:03;97706.81;;;9.60;84.92
967;BME280;56108;48.730;9.304;2023-04-27T06:37:11;97709.19;;;9.91;85.49
967;BME280;56108;48.730;9.304;2023-04-27T06:39:20;97716.00;;;10.37;81.83
967;BME280;56108;48.730;9.304;2023-04-27T06:41:31;97719.16;;;10.69;76.49
967;BME280;56108;48.730;9.304;2023-04-27T06:43:39;97714.06;;;10.79;75.20
967;BME280;56108;48.730;9.304;2023-04-27T06:45:47;97721.63;;;11.48;70.61
967;BME280;56108;48.730;9.304;2023-04-27T06:47:55;97725.97;;;11.37;71.94
967;BME280;56108;48.730;9.304;2023-04-27T06:50:04;97734.59;;;11.53;70.30
967;BME280;56108;48.730;9.304;2023-04-27T06:52:12;97721.00;;;11.69;70.67
967;BME280;56108;48.730;9.304;2023-04-27T06:54:20;97739.47;;;12.92;66.48
967;BME280;56108;48.730;9.304;2023-04-27T06:56:31;97745.81;;;12.91;63.53
967;BME280;56108;48.730;9.304;2023-04-27T06:58:39;97759.72;;;14.08;61.26
967;BME280;56108;48.730;9.304;2023-04-27T07:00:47;97772.66;;;15.52;56.29
967;BME280;56108;48.730;9.304;2023-04-27T07:02:55;97780.31;;;14.94;54.81
967;BME280;56108;48.730;9.304;2023-04-27T07:05:04;97784.75;;;14.84;53.62
967;BME280;56108;48.730;9.304;2023-04-27T07:07:12;97792.47;;;15.91;52.08
967;BME280;56108;48.730;9.304;2023-04-27T07:09:20;97796.19;;;16.00;50.22
967;BME280;56108;48.730;9.304;2023-04-27T07:11:34;97794.81;;;14.92;51.59
967;BME280;56108;48.730;9.304;2023-04-27T07:13:42;97784.22;;;14.58;53.75
967;BME280;56108;48.730;9.304;2023-04-27T07:15:54;97795.81;;;16.14;51.58
967;BME280;56108;48.730;9.304;2023-04-27T07:18:04;97805.47;;;16.77;49.62
967;BME280;56108;48.730;9.304;2023-04-27T07:20:22;97824.00;;;16.99;46.17
967;BME280;56108;48.730;9.304;2023-04-27T07:22:34;97833.84;;;17.86;43.88
967;BME280;56108;48.730;9.304;2023-04-27T07:24:43;97843.03;;;19.39;42.03
967;BME280;56108;48.730;9.304;2023-04-27T07:26:53;97830.84;;;17.79;42.46
967;BME280;56108;48.730;9.304;2023-04-27T07:29:02;97823.72;;;16.83;44.58
967;BME280;56108;48.730;9.304;2023-04-27T07:31:27;97813.03;;;15.60;44.66
967;BME280;56108;48.730;9.304;2023-04-27T07:33:35;97820.16;;;17.02;44.39
967;BME280;56108;48.730;9.304;2023-04-27T07:35:43;97830.59;;;18.19;41.31
967;BME280;56108;48.730;9.304;2023-04-27T07:37:51;97842.66;;;18.15;40.69
967;BME280;56108;48.730;9.304;2023-04-27T07:40:00;97849.25;;;20.35;38.03
967;BME280;56108;48.730;9.304;2023-04-27T07:42:17;97853.25;;;21.24;36.13
967;BME280;56108;48.730;9.304;2023-04-27T07:44:26;97859.38;;;21.26;35.58
967;BME280;56108;48.730;9.304;2023-04-27T07:46:34;97849.41;;;20.33;37.99
967;BME280;56108;48.730;9.304;2023-04-27T07:48:44;97832.50;;;18.64;40.02
967;BME280;56108;48.730;9.304;2023-04-27T07:50:54;97838.72;;;18.37;39.90
967;BME280;56108;48.730;9.304;2023-04-27T07:53:02;97830.63;;;18.37;39.14
967;BME280;56108;48.730;9.304;2023-04-27T07:55:11;97834.84;;;18.49;39.22
967;BME280;56108;48.730;9.304;2023-04-27T07:57:21;97838.47;;;17.93;40.43
967;BME280;56108;48.730;9.304;2023-04-27T07:59:29;97831.94;;;17.30;40.84
967;BME280;56108;48.730;9.304;2023-04-27T08:01:37;97812.75;;;14.80;44.85
967;BME280;56108;48.730;9.304;2023-04-27T08:03:46;97808.47;;;14.56;45.30
967;BME280;56108;48.730;9.304;2023-04-27T08:05:54;97795.69;;;14.49;46.82
967;BME280;56108;48.730;9.304;2023-04-27T08:08:03;97792.78;;;14.84;47.17
967;BME280;56108;48.730;9.304;2023-04-27T08:10:11;97801.09;;;15.23;46.20
967;BME280;56108;48.730;9.304;2023-04-27T08:12:22;97794.81;;;14.59;46.95
967;BME280;56108;48.730;9.304;2023-04-27T08:14:33;97791.41;;;14.90;47.84
967;BME280;56108;48.730;9.304;2023-04-27T08:16:41;97790.91;;;15.17;48.87
967;BME280;56108;48.730;9.304;2023-04-27T08:18:49;97787.56;;;15.24;49.32
967;BME280;56108;48.730;9.304;2023-04-27T08:20:57;97796.00;;;14.99;47.16
967;BME280;56108;48.730;9.304;2023-04-27T08:23:05;97776.41;;;13.67;49.36
967;BME280;56108;48.730;9.304;2023-04-27T08:25:13;97770.09;;;14.01;50.13
967;BME280;56108;48.730;9.304;2023-04-27T08:27:24;97759.06;;;14.38;50.51
967;BME280;56108;48.730;9.304;2023-04-27T08:29:32;97769.63;;;14.40;49.04
967;BME280;56108;48.730;9.304;2023-04-27T08:31:40;97769.25;;;14.55;49.11
967;BME280;56108;48.730;9.304;2023-04-27T08:33:49;97763.59;;;14.26;50.54
967;BME280;56108;48.730;9.304;2023-04-27T08:35:58;97745.88;;;14.57;51.94
967;BME280;56108;48.730;9.304;2023-04-27T08:38:06;97751.28;;;14.78;50.07
967;BME280;56108;48.730;9.304;2023-04-27T08:40:14;97753.06;;;14.89;51.17
967;BME280;56108;48.730;9.304;2023-04-27T08:42:26;97754.34;;;14.95;50.19
967;BME280;56108;48.730;9.304;2023-04-27T08:44:37;97753.56;;;14.83;49.08
967;BME280;56108;48.730;9.304;2023-04-27T08:46:45;97759.63;;;14.85;48.63
967;BME280;56108;48.730;9.304;2023-04-27T08:48:54;97757.50;;;14.35;48.11
967;BME280;56108;48.730;9.304;2023-04-27T08:51:07;97745.44;;;14.41;48.87
967;BME280;56108;48.730;9.304;2023-04-27T08:53:17;97744.06;;;13.92;49.38
967;BME280;56108;48.730;9.304;2023-04-27T08:55:26;97738.88;;;14.34;50.27
967;BME280;56108;48.730;9.304;2023-04-27T08:57:37;97742.13;;;13.94;50.99
967;BME280;56108;48.730;9.304;2023-04-27T08:59:56;97741.84;;;14.08;50.79
967;BME280;56108;48.730;9.304;2023-04-27T09:02:05;97745.84;;;14.14;48.01
967;BME280;56108;48.730;9.304;2023-04-27T09:04:13;97749.59;;;14.23;48.99
967;BME280;56108;48.730;9.304;2023-04-27T09:06:28;97741.63;;;14.44;48.40
967;BME280;56108;48.730;9.304;2023-04-27T09:08:41;97753.13;;;14.67;47.75
967;BME280;56108;48.730;9.304;2023-04-27T09:10:50;97759.72;;;15.16;47.08
967;BME280;56108;48.730;9.304;2023-04-27T09:13:01;97742.81;;;15.67;48.65
967;BME280;56108;48.730;9.304;2023-04-27T09:15:09;97758.31;;;15.63;45.45
967;BME280;56108;48.730;9.304;2023-04-27T09:17:23;97779.38;;;15.68;42.86
967;BME280;56108;48.730;9.304;2023-04-27T09:19:32;97763.06;;;16.21;44.52
967;BME280;56108;48.730;9.304;2023-04-27T09:21:40;97772.28;;;15.97;42.67
967;BME280;56108;48.730;9.304;2023-04-27T09:23:51;97787.88;;;16.63;41.43
967;BME280;56108;48.730;9.304;2023-04-27T09:26:01;97801.06;;;17.24;39.78
967;BME280;56108;48.730;9.304;2023-04-27T09:28:14;97791.25;;;17.42;40.70
967;BME280;56108;48.730;9.304;2023-04-27T09:30:22;97799.09;;;18.75;38.72
967;BME280;56108;48.730;9.304;2023-04-27T09:32:30;97815.09;;;19.48;36.51
967;BME280;56108;48.730;9.304;2023-04-27T09:34:39;97808.22;;;20.98;36.16
967;BME280;56108;48.730;9.304;2023-04-27T09:36:47;97798.19;;;22.13;34.35
967;BME280;56108;48.730;9.304;2023-04-27T09:38:56;97787.78;;;22.72;32.22
967;BME280;56108;48.730;9.304;2023-04-27T09:41:06;97783.06;;;22.35;32.72
967;BME280;56108;48.730;9.304;2023-04-27T09:43:17;97783.22;;;23.64;31.78
967;BME280;56108;48.730;9.304;2023-04-27T09:45:26;97792.56;;;23.24;30.60
967;BME280;56108;48.730;9.304;2023-04-27T09:47:35;97745.13;;;20.57;31.77
967;BME280;56108;48.730;9.304;2023-04-27T09:49:43;97738.84;;;19.72;33.11
967;BME280;56108;48.730;9.304;2023-04-27T09:51:51;97738.22;;;21.11;33.99
967;BME280;56108;48.730;9.304;2023-04-27T09:54:02;97739.94;;;22.01;31.90
967;BME280;56108;48.730;9.304;2023-04-27T09:56:19;97738.75;;;23.42;30.10
967;BME280;56108;48.730;9.304;2023-04-27T09:58:55;97738.91;;;22.49;29.47
967;BME280;56108;48.730;9.304;2023-04-27T10:01:13;97733.47;;;22.10;30.06
967;BME280;56108;48.730;9.304;2023-04-27T10:03:30;97722.03;;;21.92;30.64
967;BME280;56108;48.730;9.304;2023-04-27T10:05:58;97719.75;;;21.64;32.51
967;BME280;56108;48.730;9.304;2023-04-27T10:08:14;97733.25;;;20.50;31.57
967;BME280;56108;48.730;9.304;2023-04-27T10:10:22;97717.03;;;19.65;34.18
967;BME280;56108;48.730;9.304;2023-04-27T10:12:33;97723.47;;;19.72;32.71
967;BME280;56108;48.730;9.304;2023-04-27T10:14:52;97728.25;;;21.04;33.23
967;BME280;56108;48.730;9.304;2023-04-27T10:17:09;97724.25;;;21.88;33.29
967;BME280;56108;48.730;9.304;2023-04-27T10:19:18;97727.09;;;21.95;33.36
967;BME280;56108;48.730;9.304;2023-04-27T10:21:26;97723.75;;;21.84;32.95
967;BME280;56108;48.730;9.304;2023-04-27T10:23:44;97727.91;;;21.07;33.33
967;BME280;56108;48.730;9.304;2023-04-27T10:25:54;97724.88;;;21.34;32.46
967;BME280;56108;48.730;9.304;2023-04-27T10:28:03;97718.59;;;18.80;35.27
967;BME280;56108;48.730;9.304;2023-04-27T10:30:17;97703.94;;;19.78;37.30
967;BME280;56108;48.730;9.304;2023-04-27T10:32:28;97714.22;;;19.49;36.95
967;BME280;56108;48.730;9.304;2023-04-27T10:34:37;97711.38;;;20.35;36.66
967;BME280;56108;48.730;9.304;2023-04-27T10:36:46;97720.69;;;20.41;33.27
967;BME280;56108;48.730;9.304;2023-04-27T10:38:55;97711.03;;;20.22;34.83
967;BME280;56108;48.730;9.304;2023-04-27T10:41:03;97718.06;;;20.57;33.73
967;BME280;56108;48.730;9.304;2023-04-27T10:43:13;97717.59;;;20.78;32.49
967;BME280;56108;48.730;9.304;2023-04-27T10:45:33;97697.78;;;21.18;35.51
967;BME280;56108;48.730;9.304;2023-04-27T10:47:42;97708.94;;;21.23;32.95
967;BME280;56108;48.730;9.304;2023-04-27T10:49:53;97701.53;;;21.01;34.98
967;BME280;56108;48.730;9.304;2023-04-27T10:52:01;97700.19;;;19.71;34.75
967;BME280;56108;48.730;9.304;2023-04-27T10:54:10;97688.19;;;20.08;36.68
967;BME280;56108;48.730;9.304;2023-04-27T10:56:18;97702.56;;;18.96;35.26
967;BME280;56108;48.730;9.304;2023-04-27T10:58:28;97691.84;;;18.87;36.40
967;BME280;56108;48.730;9.304;2023-04-27T11:00:54;97685.78;;;19.37;36.45
967;BME280;56108;48.730;9.304;2023-04-27T11:03:13;97692.94;;;19.46;38.58
967;BME280;56108;48.730;9.304;2023-04-27T11:05:26;97686.41;;;19.56;38.00
967;BME280;56108;48.730;9.304;2023-04-27T11:07:39;97682.22;;;19.10;42.15
967;BME280;56108;48.730;9.304;2023-04-27T11:09:49;97694.16;;;18.82;37.34
967;BME280;56108;48.730;9.304;2023-04-27T11:11:57;97681.06;;;18.51;39.04
967;BME280;56108;48.730;9.304;2023-04-27T11:14:07;97685.66;;;17.78;40.25
967;BME280;56108;48.730;9.304;2023-04-27T11:16:18;97669.97;;;17.26;42.61
967;BME280;56108;48.730;9.304;2023-04-27T11:18:29;97672.09;;;17.22;40.07
967;BME280;56108;48.730;9.304;2023-04-27T11:20:40;97679.56;;;16.91;40.96
967;BME280;56108;48.730;9.304;2023-04-27T11:22:48;97681.16;;;17.21;39.25
967;BME280;56108;48.730;9.304;2023-04-27T11:24:56;97688.88;;;16.58;40.28
967;BME280;56108;48.730;9.304;2023-04-27T11:27:04;97678.13;;;16.49;41.12
967;BME280;56108;48.730;9.304;2023-04-27T11:29:12;97676.31;;;16.78;42.01
967;BME280;56108;48.730;9.304;2023-04-27T11:31:24;97675.72;;;16.94;41.00
967;BME280;56108;48.730;9.304;2023-04-27T11:33:32;97668.09;;;17.36;40.89
967;BME280;56108;48.730;9.304;2023-04-27T11:35:40;97673.78;;;16.77;40.18
967;BME280;56108;48.730;9.304;2023-04-27T11:37:57;97663.94;;;17.05;41.81
967;BME280;56108;48.730;9.304;2023-04-27T11:40:07;97667.09;;;16.61;40.89
967;BME280;56108;48.730;9.304;2023-04-27T11:42:16;97667.81;;;16.73;41.31
967;BME280;56108;48.730;9.304;2023-04-27T11:44:26;97664.09;;;16.06;41.63
967;BME280;56108;48.730;9.304;2023-04-27T11:46:37;97673.63;;;16.39;42.58
967;BME280;56108;48.730;9.304;2023-04-27T11:48:46;97677.72;;;16.92;43.48
967;BME280;56108;48.730;9.304;2023-04-27T11:50:56;97681.38;;;16.62;41.91
967;BME280;56108;48.730;9.304;2023-04-27T11:53:05;97667.81;;;17.39;43.92
967;BME280;56108;48.730;9.304;2023-04-27T11:55:13;97671.81;;;17.63;42.80